Time;durP1;ratioP1;P1;durP2;ratioP2;P2;SDS_P1;SDS_P2;PMS_P1;PMS_P2;Temp;Humidity;BMP_temperature;BMP_pressure;BME280_temperature;BME280_humidity;BME280_pressure;Samples;Min_cycle;Max_cycle;Signal;HPM_P1;HPM_P2
2022/05/01 00:00:23;;;;;;;4.63;3.78;;;;;;;12.99;58.35;95010.94;4128105;28;20050;-52
2022/05/01 00:02:24;;;;;;;5.95;3.97;;;;;;;13.00;58.43;95010.78;4127849;28;20448;-52
2022/05/01 00:04:26;;;;;;;8.25;4.45;;;;;;;13.06;58.04;95017.19;4127776;28;20459;-52
2022/05/01 00:06:31;;;;;;;6.88;4.60;;;;;;;13.00;58.41;95020.47;4127494;28;20529;-51
2022/05/01 00:08:36;;;;;;;7.85;4.45;;;;;;;12.94;58.42;95016.69;4132053;28;20431;-54
2022/05/01 00:10:38;;;;;;;6.10;4.50;;;;;;;12.83;58.97;95017.03;4143998;28;20111;-54
2022/05/01 00:13:00;;;;;;;5.72;4.72;;;;;;;12.65;58.94;95010.16;4143914;28;20089;-52
2022/05/01 00:15:02;;;;;;;7.47;4.82;;;;;;;12.18;60.42;95002.88;4140828;28;20344;-53
2022/05/01 00:17:04;;;;;;;6.20;4.73;;;;;;;11.66;61.60;95003.84;4135270;28;20581;-52
2022/05/01 00:19:08;;;;;;;6.18;4.45;;;;;;;11.46;62.78;95005.03;4143360;28;20370;-53
2022/05/01 00:21:10;;;;;;;10.18;7.72;;;;;;;11.53;62.85;95000.00;4143431;28;20557;-52
2022/05/01 00:23:13;;;;;;;17.33;13.02;;;;;;;11.62;62.67;94997.25;4142245;28;20150;-53
2022/05/01 00:25:15;;;;;;;11.35;7.40;;;;;;;11.78;62.36;94993.03;4143684;28;20049;-49
2022/05/01 00:27:17;;;;;;;70.43;45.70;;;;;;;11.87;62.22;94995.56;4143597;28;20057;-51
2022/05/01 00:29:19;;;;;;;35.60;21.95;;;;;;;12.00;62.00;94991.66;4142206;28;20073;-51
2022/05/01 00:31:21;;;;;;;20.67;13.25;;;;;;;12.04;61.92;94993.78;4143540;28;20061;-52
2022/05/01 00:38:08;;;;;;;7.03;5.32;;;;;;;11.99;62.02;94995.28;4141635;28;21709;-58
2022/05/01 00:40:10;;;;;;;6.18;4.50;;;;;;;12.05;61.66;94981.50;4143684;28;20065;-56
2022/05/01 00:42:12;;;;;;;5.93;4.90;;;;;;;12.05;61.47;94984.94;4143751;28;20050;-54
2022/05/01 00:44:17;;;;;;;6.68;4.82;;;;;;;11.86;61.95;94983.38;4143766;28;20077;-53
2022/05/01 00:46:19;;;;;;;9.60;4.70;;;;;;;11.82;62.38;94982.06;4143423;28;20060;-53
2022/05/01 00:48:21;;;;;;;6.57;4.93;;;;;;;11.82;62.25;94983.88;4142636;28;20053;-52
2022/05/01 00:50:22;;;;;;;6.55;5.30;;;;;;;11.76;62.44;94982.69;4143095;28;20093;-53
2022/05/01 00:52:25;;;;;;;5.65;4.68;;;;;;;11.68;62.79;94983.50;4141553;28;20057;-52
2022/05/01 00:54:31;;;;;;;6.32;4.70;;;;;;;11.71;62.85;94981.53;4141201;28;20069;-55
2022/05/01 00:56:35;;;;;;;8.48;5.10;;;;;;;11.68;62.88;94986.13;4143264;28;20050;-51
2022/05/01 00:58:37;;;;;;;7.55;5.03;;;;;;;11.71;63.03;94984.16;4143109;28;20042;-55
2022/05/01 01:00:39;;;;;;;7.18;5.32;;;;;;;11.60;63.11;94980.84;4143645;28;20054;-49
2022/05/01 01:02:41;;;;;;;8.82;5.97;;;;;;;11.53;63.86;94982.47;4141851;28;20128;-53
2022/05/01 01:04:43;;;;;;;10.50;6.28;;;;;;;11.55;63.78;94982.28;4142476;28;20071;-52
2022/05/01 01:06:46;;;;;;;11.98;6.05;;;;;;;11.45;64.06;94978.00;4143505;28;20053;-53
2022/05/01 01:08:47;;;;;;;8.82;6.68;;;;;;;11.40;64.34;94980.28;4139762;28;20049;-53
2022/05/01 01:10:49;;;;;;;8.00;5.63;;;;;;;11.34;64.58;94980.91;4142530;28;20054;-50
2022/05/01 01:12:53;;;;;;;8.48;5.93;;;;;;;11.26;65.24;94979.03;4143385;28;20057;-54
2022/05/01 01:14:55;;;;;;;9.75;7.13;;;;;;;11.21;65.48;94980.50;4143044;28;20050;-53
2022/05/01 01:16:57;;;;;;;11.18;6.65;;;;;;;11.13;65.63;94977.84;4143125;28;20065;-55
2022/05/01 01:18:59;;;;;;;11.20;6.90;;;;;;;11.18;65.79;94975.56;4142165;28;20050;-57
2022/05/01 01:21:01;;;;;;;12.15;7.65;;;;;;;11.16;65.90;94977.53;4142947;28;20127;-52
2022/05/01 01:23:03;;;;;;;12.35;7.15;;;;;;;11.17;65.68;94977.38;4141442;28;20058;-55
2022/05/01 01:25:09;;;;;;;9.20;6.55;;;;;;;11.13;66.00;94977.84;4142872;28;20057;-54
2022/05/01 01:27:13;;;;;;;11.55;7.30;;;;;;;11.14;65.91;94979.47;4142499;28;20117;-54
2022/05/01 01:31:45;;;;;;;11.07;6.82;;;;;;;11.03;66.78;94960.44;4142321;28;20050;-53
2022/05/01 01:33:52;;;;;;;8.88;6.85;;;;;;;10.94;67.31;94968.38;4134612;28;20050;-53
2022/05/01 01:35:55;;;;;;;9.65;7.28;;;;;;;10.93;67.43;94970.19;4141214;28;20060;-53
2022/05/01 01:37:57;;;;;;;8.30;6.75;;;;;;;10.88;67.49;94964.56;4141307;28;20060;-50
2022/05/01 01:39:58;;;;;;;9.63;7.57;;;;;;;10.90;67.53;94967.88;4142778;28;20049;-55
2022/05/01 01:42:04;;;;;;;7.82;6.88;;;;;;;10.81;68.04;94963.56;4142698;28;20053;-52
2022/05/01 01:44:05;;;;;;;11.82;6.63;;;;;;;10.81;67.96;94964.38;4141177;28;20032;-52
2022/05/01 01:46:07;;;;;;;11.20;6.95;;;;;;;10.91;67.74;94966.91;4142406;28;20058;-53
2022/05/01 01:48:13;;;;;;;10.00;7.15;;;;;;;10.91;67.90;94966.09;4134223;28;20062;-54
2022/05/01 01:50:19;;;;;;;9.50;7.65;;;;;;;10.82;68.24;94966.03;4133822;28;20097;-53
2022/05/01 01:52:20;;;;;;;9.50;7.35;;;;;;;10.87;67.92;94962.94;4141080;28;20132;-56
2022/05/01 01:54:22;;;;;;;9.00;6.88;;;;;;;10.82;68.26;94968.66;4135836;28;20483;-57
2022/05/01 01:56:24;;;;;;;9.55;7.53;;;;;;;10.81;68.15;94961.75;4142705;28;20050;-51
2022/05/01 01:58:27;;;;;;;9.82;7.72;;;;;;;10.74;68.61;94967.78;4142684;28;20084;-52
2022/05/01 02:00:29;;;;;;;8.50;6.95;;;;;;;10.75;68.97;94964.16;4142762;28;20066;-50
2022/05/01 02:02:31;;;;;;;9.93;7.38;;;;;;;10.80;68.43;94954.06;4142537;28;20058;-53
2022/05/01 02:04:33;;;;;;;10.80;8.05;;;;;;;10.87;68.40;94962.94;4142122;28;20470;-56
2022/05/01 02:06:35;;;;;;;10.45;7.70;;;;;;;10.90;68.46;94961.81;4141874;28;20057;-53
2022/05/01 02:08:37;;;;;;;12.82;8.15;;;;;;;10.84;68.43;94958.00;4140982;28;20107;-54
2022/05/01 02:10:39;;;;;;;11.30;8.18;;;;;;;10.86;68.68;94958.66;4140920;28;20042;-57
2022/05/01 02:12:40;;;;;;;11.60;7.85;;;;;;;10.79;68.74;94966.31;4142381;28;20514;-56
2022/05/01 02:14:42;;;;;;;11.95;8.45;;;;;;;10.77;68.98;94959.59;4142147;28;20057;-55
2022/05/01 02:16:44;;;;;;;10.90;8.32;;;;;;;10.79;69.10;94958.47;4142250;28;20057;-53
2022/05/01 02:18:46;;;;;;;9.40;7.57;;;;;;;10.76;69.17;94950.09;4142123;28;20069;-57
2022/05/01 02:23:08;;;;;;;11.40;8.55;;;;;;;10.78;68.80;94953.41;4140704;28;20076;-53
2022/05/01 02:25:10;;;;;;;10.13;8.18;;;;;;;10.80;68.78;94952.25;4141966;28;20067;-53
2022/05/01 02:27:12;;;;;;;12.50;8.73;;;;;;;10.87;69.17;94960.31;4141879;28;20050;-52
2022/05/01 02:29:14;;;;;;;9.85;8.38;;;;;;;10.98;68.73;94969.72;4141789;28;20050;-51
2022/05/01 02:31:17;;;;;;;11.27;7.95;;;;;;;11.06;68.08;94967.16;4141936;28;20538;-54
2022/05/01 02:33:20;;;;;;;12.30;8.45;;;;;;;11.14;67.99;94961.13;4141607;28;20048;-53
2022/05/01 02:35:23;;;;;;;11.93;9.25;;;;;;;11.21;67.80;94960.34;4141988;28;20594;-52
2022/05/01 02:37:24;;;;;;;10.20;8.05;;;;;;;11.21;67.60;94960.34;4142121;28;20104;-52
2022/05/01 02:39:26;;;;;;;10.70;8.73;;;;;;;11.20;67.52;94952.63;4140419;28;20061;-54
2022/05/01 02:41:28;;;;;;;10.07;8.32;;;;;;;11.15;67.70;94952.28;4142001;28;20050;-56
2022/05/01 02:43:30;;;;;;;10.43;8.63;;;;;;;11.09;67.83;94955.53;4141948;28;20116;-52
2022/05/01 02:45:32;;;;;;;11.95;8.85;;;;;;;11.03;68.13;94952.56;4142098;28;20201;-58
2022/05/01 02:47:34;;;;;;;12.45;9.30;;;;;;;10.90;68.46;94957.38;4140288;28;20078;-52
2022/05/01 02:49:36;;;;;;;11.32;9.02;;;;;;;10.78;69.02;94963.88;4128659;28;20194;-51
2022/05/01 02:51:38;;;;;;;11.80;9.50;;;;;;;10.79;68.97;94955.84;4135427;28;20057;-55
2022/05/01 02:53:39;;;;;;;13.20;9.50;;;;;;;10.84;69.17;94948.34;4142925;28;20050;-54
2022/05/01 02:55:41;;;;;;;13.20;9.85;;;;;;;10.80;68.71;94946.19;4141219;28;20109;-53
2022/05/01 02:57:43;;;;;;;14.30;9.00;;;;;;;10.78;68.81;94953.41;4145024;28;20050;-56
2022/05/01 02:59:45;;;;;;;14.85;9.50;;;;;;;10.80;69.14;94954.06;4145003;28;20108;-54
2022/05/01 03:01:47;;;;;;;15.23;9.63;;;;;;;10.85;68.69;94960.47;4144520;28;20050;-56
2022/05/01 03:03:50;;;;;;;13.93;9.63;;;;;;;10.89;68.60;94955.75;4144236;28;20053;-53
2022/05/01 03:05:52;;;;;;;13.43;9.65;;;;;;;10.93;68.95;94951.03;4144420;28;20610;-55
2022/05/01 03:07:56;;;;;;;13.15;9.35;;;;;;;10.93;68.40;94951.84;4141900;28;20049;-55
2022/05/01 03:09:57;;;;;;;13.80;9.55;;;;;;;10.92;68.52;94950.19;4144817;28;20093;-57
2022/05/01 03:11:59;;;;;;;14.07;10.40;;;;;;;10.98;68.57;94948.75;4144975;28;20426;-57
2022/05/01 03:14:01;;;;;;;17.40;10.38;;;;;;;11.02;68.36;94963.19;4143462;28;20050;-55
2022/05/01 03:16:03;;;;;;;15.40;10.45;;;;;;;11.03;68.29;94968.28;4144761;28;20112;-55
2022/05/01 03:22:45;;;;;;;12.70;9.77;;;;;;;10.75;68.67;94959.75;4128173;28;20050;-56
2022/05/01 03:24:46;;;;;;;15.95;10.05;;;;;;;10.75;68.72;94962.34;4127558;28;20054;-55
2022/05/01 03:26:48;;;;;;;14.85;10.02;;;;;;;10.73;69.27;94961.69;4128363;28;20136;-52
2022/05/01 03:28:50;;;;;;;16.15;10.73;;;;;;;10.75;69.10;94967.59;4128442;28;20108;-57
2022/05/01 03:30:56;;;;;;;12.40;8.88;;;;;;;10.84;68.72;94973.72;4128030;28;20475;-53
2022/05/01 03:32:58;;;;;;;14.52;10.07;;;;;;;10.93;68.35;94980.69;4127798;28;20058;-58
2022/05/01 03:35:01;;;;;;;13.05;10.05;;;;;;;11.04;68.17;94982.22;4128290;28;20126;-53
2022/05/01 03:37:03;;;;;;;15.15;9.60;;;;;;;11.10;67.75;94978.13;4128365;28;20054;-55
2022/05/01 03:39:05;;;;;;;15.20;10.95;;;;;;;11.17;67.43;94984.41;4126798;28;20054;-54
2022/05/01 03:41:09;;;;;;;13.68;10.18;;;;;;;11.19;67.60;94988.53;4133014;28;20081;-55
2022/05/01 03:43:12;;;;;;;14.80;10.73;;;;;;;11.26;66.89;94988.72;4144307;28;20548;-54
2022/05/01 03:45:13;;;;;;;17.52;10.98;;;;;;;11.38;66.15;94992.72;4143875;28;20564;-56
2022/05/01 03:47:15;;;;;;;14.15;9.90;;;;;;;11.44;65.45;95001.75;4144304;28;20050;-56
2022/05/01 03:49:17;;;;;;;12.90;10.60;;;;;;;11.44;64.63;94999.13;4143781;28;20490;-56
2022/05/01 03:51:18;;;;;;;12.35;9.93;;;;;;;11.46;64.31;95008.50;4144564;28;20038;-56
2022/05/01 03:53:21;;;;;;;13.10;8.82;;;;;;;11.54;63.91;94999.03;4143132;28;20668;-53
2022/05/01 03:55:23;;;;;;;10.85;8.75;;;;;;;11.54;63.47;94999.84;4139985;28;20058;-54
2022/05/01 03:57:25;;;;;;;13.20;9.18;;;;;;;11.55;63.30;95003.28;4131726;28;20124;-56
2022/05/01 03:59:27;;;;;;;12.52;8.65;;;;;;;11.55;63.38;95003.28;4127535;28;20206;-55
2022/05/01 04:01:29;;;;;;;11.57;8.40;;;;;;;11.60;63.14;95006.28;4128025;28;20475;-54
2022/05/01 04:03:31;;;;;;;11.95;8.00;;;;;;;11.60;62.59;95003.66;4127491;28;20137;-54
2022/05/01 04:05:33;;;;;;;13.10;8.38;;;;;;;11.70;62.82;95009.56;4127836;28;20058;-52
2022/05/01 04:07:35;;;;;;;9.68;8.25;;;;;;;11.71;62.30;95010.41;4127905;28;20053;-55
2022/05/01 04:09:37;;;;;;;12.73;8.00;;;;;;;11.69;62.46;95015.81;4126236;28;20112;-50
2022/05/01 04:11:39;;;;;;;10.68;7.93;;;;;;;11.71;62.27;95019.09;4127981;28;20479;-52
2022/05/01 04:13:41;;;;;;;12.63;8.45;;;;;;;11.72;62.40;95015.47;4127224;28;20089;-56
2022/05/01 04:15:43;;;;;;;10.10;7.70;;;;;;;11.77;61.87;95018.47;4127869;28;20054;-59
2022/05/01 04:17:44;;;;;;;11.40;7.35;;;;;;;11.80;62.02;95023.41;4142638;28;20486;-58
2022/05/01 04:19:48;;;;;;;11.15;7.60;;;;;;;11.86;62.00;95028.00;4127609;28;20487;-55
2022/05/01 04:21:50;;;;;;;10.90;7.82;;;;;;;11.92;61.50;95020.53;4138201;28;20108;-57
2022/05/01 04:23:52;;;;;;;13.43;8.23;;;;;;;12.00;61.51;95021.38;4142344;28;20444;-54
2022/05/01 04:25:54;;;;;;;15.63;8.63;;;;;;;12.02;61.44;95018.56;4143931;28;20058;-54
2022/05/01 04:27:58;;;;;;;10.27;7.80;;;;;;;12.05;61.75;95024.34;4143572;28;20057;-53
2022/05/01 04:30:00;;;;;;;11.85;8.82;;;;;;;12.12;61.78;95021.06;4143701;28;20073;-54
2022/05/01 04:32:04;;;;;;;12.27;9.15;;;;;;;12.22;61.45;95034.91;4143702;28;20046;-56
2022/05/01 04:34:05;;;;;;;;;;;;;;;12.19;61.40;95025.50;4143912;28;20054;-54
2022/05/01 04:36:07;;;;;;;10.93;8.90;;;;;;;12.23;61.30;95028.63;4142329;28;19928;-56
2022/05/01 04:38:17;;;;;;;12.88;8.13;;;;;;;12.30;61.31;95024.38;4142570;28;20075;-56
2022/05/01 04:40:19;;;;;;;11.25;8.85;;;;;;;12.34;60.76;95019.63;4143393;28;20053;-57
2022/05/01 04:42:21;;;;;;;18.20;9.60;;;;;;;12.36;61.34;95022.91;4143490;28;20058;-56
2022/05/01 04:44:23;;;;;;;11.88;9.23;;;;;;;12.43;61.38;95026.53;4143057;28;20124;-53
2022/05/01 04:46:25;;;;;;;14.02;9.27;;;;;;;12.52;61.00;95016.84;4143139;28;20360;-52
2022/05/01 04:48:27;;;;;;;12.50;9.15;;;;;;;12.55;61.13;95016.53;4142983;28;20054;-55
2022/05/01 04:50:30;;;;;;;12.27;9.55;;;;;;;12.56;61.03;95019.03;4143342;28;20046;-55
2022/05/01 04:52:35;;;;;;;11.88;8.88;;;;;;;12.63;60.66;95014.75;4143507;28;20054;-54
2022/05/01 04:54:38;;;;;;;14.07;8.95;;;;;;;12.73;60.73;95006.69;4142023;28;20200;-51
2022/05/01 04:59:01;;;;;;;13.73;9.07;;;;;;;12.90;60.74;95008.31;4127418;28;20059;-55
2022/05/01 05:01:02;;;;;;;11.93;9.13;;;;;;;12.89;60.76;95009.31;4126916;28;20054;-54
2022/05/01 05:03:05;;;;;;;14.23;10.30;;;;;;;12.87;60.87;95008.66;4126750;28;20062;-52
2022/05/01 05:05:08;;;;;;;16.45;9.52;;;;;;;12.96;61.24;95014.72;4127095;28;20050;-54
2022/05/01 05:07:10;;;;;;;11.60;9.82;;;;;;;12.98;61.51;95018.00;4126935;28;20525;-53
2022/05/01 05:11:32;;;;;;;13.90;10.20;;;;;;;13.00;61.69;95013.41;4126631;28;20485;-52
2022/05/01 05:13:35;;;;;;;12.90;10.27;;;;;;;13.15;61.50;95018.00;4126840;28;20054;-53
2022/05/01 05:15:37;;;;;;;12.30;8.98;;;;;;;13.22;61.29;95029.50;4126791;28;20047;-52
2022/05/01 05:17:38;;;;;;;12.15;9.43;;;;;;;13.29;60.61;95022.59;4126746;28;20050;-52
2022/05/01 05:19:40;;;;;;;14.25;9.90;;;;;;;13.23;60.77;95029.34;4126592;28;20495;-57
2022/05/01 05:21:42;;;;;;;13.18;9.35;;;;;;;13.24;60.58;95033.59;4136151;28;20692;-52
2022/05/01 05:23:55;;;;;;;16.75;11.00;;;;;;;13.14;60.97;95026.88;4141765;28;20065;-53
2022/05/01 05:25:57;;;;;;;14.23;9.40;;;;;;;13.20;60.64;95034.91;4141274;28;20411;-56
2022/05/01 05:27:59;;;;;;;10.38;8.70;;;;;;;13.28;60.88;95021.78;4143081;28;20058;-56
2022/05/01 05:30:01;;;;;;;19.25;9.07;;;;;;;13.36;60.97;95028.00;4143031;28;20260;-53
2022/05/01 05:32:09;;;;;;;12.38;9.38;;;;;;;13.22;60.61;95024.22;4141605;28;20064;-57
2022/05/01 05:34:11;;;;;;;11.75;9.13;;;;;;;13.08;61.14;95026.56;4142578;28;20054;-53
2022/05/01 05:36:13;;;;;;;12.43;9.27;;;;;;;13.07;61.35;95032.78;4142941;28;20057;-52
2022/05/01 05:38:15;;;;;;;13.32;9.38;;;;;;;13.17;61.48;95031.81;4139874;28;20049;-54
2022/05/01 05:40:16;;;;;;;17.70;8.88;;;;;;;13.20;61.32;95034.09;4142489;28;20046;-54
2022/05/01 05:42:18;;;;;;;10.43;8.77;;;;;;;12.99;62.10;95031.97;4139208;28;20108;-53
2022/05/01 05:44:20;;;;;;;14.60;8.52;;;;;;;12.94;62.14;95027.22;4134638;28;20109;-53
2022/05/01 05:46:22;;;;;;;12.75;9.00;;;;;;;12.84;62.54;95026.56;4142397;28;20050;-53
2022/05/01 05:48:24;;;;;;;12.45;9.05;;;;;;;12.88;62.98;95023.47;4132415;28;20061;-50
2022/05/01 05:50:26;;;;;;;9.80;8.70;;;;;;;13.08;62.47;95016.03;4126291;28;20661;-55
2022/05/01 05:52:27;;;;;;;10.45;8.60;;;;;;;13.32;61.81;95019.66;4139711;28;20120;-54
2022/05/01 05:54:29;;;;;;;10.10;8.10;;;;;;;13.43;61.18;95027.16;4141118;28;20127;-56
2022/05/01 05:56:31;;;;;;;9.68;8.45;;;;;;;13.37;60.58;95030.47;4141910;28;20069;-58
2022/05/01 05:58:32;;;;;;;10.80;8.25;;;;;;;13.40;61.19;95032.78;4139253;28;20180;-55
2022/05/01 06:00:34;;;;;;;13.00;8.82;;;;;;;13.44;60.60;95031.47;4139415;28;20061;-56
2022/05/01 06:02:36;;;;;;;11.70;8.50;;;;;;;13.56;60.42;95031.91;4140966;28;20479;-52
2022/05/01 06:04:41;;;;;;;13.68;9.02;;;;;;;13.71;60.28;95032.84;4141925;28;20478;-57
2022/05/01 06:06:42;;;;;;;11.00;8.70;;;;;;;13.89;59.84;95031.78;4142196;28;20123;-55
2022/05/01 06:08:44;;;;;;;10.63;8.25;;;;;;;13.82;60.16;95034.28;4140948;28;20046;-55
2022/05/01 06:10:46;;;;;;;13.20;8.75;;;;;;;13.95;59.77;95036.38;4157262;28;20053;-54
2022/05/01 06:12:48;;;;;;;12.02;8.20;;;;;;;14.10;59.27;95037.28;4142100;28;20058;-50
2022/05/01 06:14:53;;;;;;;12.45;8.57;;;;;;;14.24;58.76;95033.13;4142369;28;20540;-54
2022/05/01 06:16:55;;;;;;;14.48;8.57;;;;;;;14.25;58.99;95033.91;4142288;28;20058;-52
2022/05/01 06:18:56;;;;;;;10.27;8.23;;;;;;;14.32;58.85;95033.03;4141934;28;20100;-57
2022/05/01 06:20:58;;;;;;;10.55;8.52;;;;;;;14.30;58.93;95029.78;4139182;28;20054;-55
2022/05/01 06:23:01;;;;;;;10.57;8.05;;;;;;;14.25;58.88;95032.09;4127856;28;20117;-50
2022/05/01 06:25:02;;;;;;;9.80;8.15;;;;;;;14.20;58.45;95034.44;4129204;28;20058;-53
2022/05/01 06:27:04;;;;;;;9.68;7.60;;;;;;;14.14;58.66;95037.78;4129379;28;20113;-52
2022/05/01 06:29:06;;;;;;;9.45;6.95;;;;;;;14.17;58.92;95026.88;4129232;28;20427;-56
2022/05/01 06:31:08;;;;;;;11.50;7.70;;;;;;;14.19;58.14;95032.78;4129219;28;20116;-54
2022/05/01 06:33:16;;;;;;;12.95;8.40;;;;;;;14.27;58.42;95034.56;4128590;28;20453;-54
2022/05/01 06:35:17;;;;;;;9.23;6.75;;;;;;;14.41;58.33;95031.19;4129205;28;20059;-54
2022/05/01 06:37:19;;;;;;;11.40;7.40;;;;;;;14.40;58.28;95036.63;4129033;28;20116;-52
2022/05/01 06:39:21;;;;;;;11.95;7.68;;;;;;;14.51;57.37;95036.22;4127700;28;20478;-55
2022/05/01 06:41:23;;;;;;;11.25;8.15;;;;;;;14.45;57.81;95037.75;4137282;28;20127;-53
2022/05/01 06:43:27;;;;;;;10.25;7.05;;;;;;;14.49;57.50;95038.22;4144811;28;20054;-53
2022/05/01 06:45:28;;;;;;;10.02;6.75;;;;;;;14.53;57.98;95039.50;4145278;28;20053;-54
2022/05/01 06:47:30;;;;;;;9.70;6.95;;;;;;;14.33;57.79;95023.34;4144989;28;20453;-52
2022/05/01 06:49:32;;;;;;;10.77;7.05;;;;;;;14.32;58.14;95033.03;4144714;28;20049;-53
2022/05/01 06:51:34;;;;;;;11.23;7.95;;;;;;;14.36;58.46;95027.44;4145092;28;20046;-55
2022/05/01 06:53:35;;;;;;;13.02;7.43;;;;;;;14.53;57.78;95032.41;4143519;28;20463;-56
2022/05/01 06:55:37;;;;;;;11.65;7.05;;;;;;;14.59;56.88;95024.84;4145104;28;20156;-52
2022/05/01 06:57:39;;;;;;;9.48;6.80;;;;;;;14.63;56.86;95029.59;4141492;28;20066;-52
2022/05/01 06:59:41;;;;;;;11.23;8.10;;;;;;;14.55;56.92;95032.28;4142202;28;20050;-53
2022/05/01 07:01:43;;;;;;;10.10;6.53;;;;;;;14.69;56.96;95021.00;4145258;28;20049;-54
2022/05/01 07:03:46;;;;;;;9.25;6.90;;;;;;;14.84;56.48;95031.59;4144477;28;20069;-52
2022/05/01 07:05:48;;;;;;;10.32;6.07;;;;;;;14.82;55.86;95024.81;4144335;28;20065;-53
2022/05/01 07:07:50;;;;;;;10.30;6.85;;;;;;;14.96;55.75;95021.41;4143538;28;20405;-55
2022/05/01 07:09:52;;;;;;;10.40;6.97;;;;;;;14.81;55.90;95018.75;4144504;28;20119;-53
2022/05/01 07:11:54;;;;;;;10.27;7.60;;;;;;;14.63;55.73;95012.97;4144837;28;20053;-51
2022/05/01 07:13:56;;;;;;;8.70;6.10;;;;;;;14.57;56.14;95014.47;4144605;28;20053;-50
2022/05/01 07:15:57;;;;;;;8.70;6.80;;;;;;;14.66;56.54;95013.41;4144953;28;20508;-54
2022/05/01 07:17:59;;;;;;;10.98;7.25;;;;;;;14.86;56.21;95010.28;4144584;28;20120;-54
2022/05/01 07:20:02;;;;;;;9.43;7.03;;;;;;;15.13;55.92;95016.81;4144731;28;20053;-53
2022/05/01 07:22:04;;;;;;;8.57;6.57;;;;;;;15.21;54.19;95022.03;4144545;28;20490;-52
2022/05/01 07:24:06;;;;;;;9.30;5.78;;;;;;;15.43;54.14;95016.88;4143174;28;20050;-52
2022/05/01 07:26:08;;;;;;;8.23;5.80;;;;;;;15.61;52.79;95011.22;4144619;28;20050;-54
2022/05/01 07:28:10;;;;;;;13.68;6.50;;;;;;;15.32;53.91;95012.84;4144288;28;20580;-57
2022/05/01 07:30:12;;;;;;;11.32;7.07;;;;;;;15.15;54.92;95013.00;4144005;28;20050;-54
2022/05/01 07:32:14;;;;;;;8.18;6.15;;;;;;;15.33;54.17;95025.03;4144125;28;20083;-56
2022/05/01 07:34:16;;;;;;;10.25;7.07;;;;;;;15.48;53.75;95017.94;4143252;28;20061;-54
2022/05/01 07:36:19;;;;;;;7.10;6.20;;;;;;;15.59;53.71;95011.38;4144218;28;20061;-53
2022/05/01 07:38:20;;;;;;;7.55;6.28;;;;;;;15.67;53.69;95015.78;4141866;28;20050;-53
2022/05/01 07:40:25;;;;;;;9.13;5.97;;;;;;;15.77;52.89;95011.06;4144587;28;20054;-54
2022/05/01 07:42:27;;;;;;;8.45;6.50;;;;;;;15.83;53.19;95007.69;4144206;28;20053;-56
2022/05/01 07:44:29;;;;;;;9.60;6.82;;;;;;;15.81;53.54;95014.16;4144337;28;20081;-51
2022/05/01 07:46:31;;;;;;;7.90;5.90;;;;;;;15.64;52.93;95022.25;4144397;28;20123;-54
2022/05/01 07:48:33;;;;;;;7.95;5.97;;;;;;;15.59;52.49;95014.03;4143801;28;20145;-53
2022/05/01 07:50:34;;;;;;;8.15;5.88;;;;;;;15.50;52.84;95023.06;4144302;28;20122;-55
2022/05/01 07:52:36;;;;;;;7.88;6.30;;;;;;;15.51;53.24;95019.44;4144217;28;20065;-53
2022/05/01 07:54:38;;;;;;;9.60;5.80;;;;;;;15.72;52.40;95016.06;4142790;28;20112;-55
2022/05/01 07:56:40;;;;;;;8.60;6.03;;;;;;;15.81;51.91;95019.44;4144115;28;20498;-54
2022/05/01 07:58:41;;;;;;;7.05;6.03;;;;;;;15.93;51.54;95021.41;4143295;28;20050;-55
2022/05/01 08:00:43;;;;;;;8.77;6.32;;;;;;;16.11;51.08;95020.22;4134452;28;20046;-56
2022/05/01 08:05:05;;;;;;;9.32;5.28;;;;;;;16.40;49.08;95016.69;4127423;28;20058;-53
2022/05/01 08:07:08;;;;;;;8.60;5.50;;;;;;;16.55;49.19;95019.28;4127243;28;20105;-52
2022/05/01 08:09:09;;;;;;;6.78;5.43;;;;;;;16.65;48.80;95017.16;4126444;28;20050;-54
2022/05/01 08:11:13;;;;;;;7.00;5.55;;;;;;;16.57;48.46;95015.44;4127413;28;20112;-54
2022/05/01 08:13:15;;;;;;;7.00;5.32;;;;;;;16.72;48.67;95018.03;4127416;28;20094;-50
2022/05/01 08:15:17;;;;;;;8.73;5.35;;;;;;;16.89;48.32;95015.16;4127635;28;20050;-53
2022/05/01 08:17:19;;;;;;;8.52;5.20;;;;;;;16.90;48.08;94996.44;4127684;28;20054;-54
2022/05/01 08:21:41;;;;;;;5.90;5.03;;;;;;;16.66;48.54;95008.19;4136890;28;20038;-54
2022/05/01 08:23:43;;;;;;;5.38;4.88;;;;;;;16.97;48.24;95007.91;4142080;28;20084;-51
2022/05/01 08:25:45;;;;;;;6.50;5.53;;;;;;;17.30;47.01;95009.19;4143869;28;20050;-55
2022/05/01 08:27:46;;;;;;;7.78;5.30;;;;;;;17.40;46.80;95012.28;4143914;28;20103;-53
2022/05/01 08:29:48;;;;;;;8.80;5.15;;;;;;;17.53;45.48;95006.25;4143655;28;20477;-51
2022/05/01 08:31:50;;;;;;;8.65;6.28;;;;;;;17.56;45.12;94995.28;4143782;28;20399;-53
2022/05/01 08:33:53;;;;;;;9.85;5.57;;;;;;;17.65;43.79;94982.69;4143186;28;20061;-53
2022/05/01 08:35:55;;;;;;;5.95;4.72;;;;;;;17.64;44.06;94997.78;4143835;28;20054;-54
2022/05/01 08:37:56;;;;;;;11.30;5.63;;;;;;;17.72;43.38;94991.47;4142405;28;20050;-54
2022/05/01 08:39:58;;;;;;;10.38;5.35;;;;;;;17.67;43.82;94991.25;4143555;28;20116;-54
2022/05/01 08:42:02;;;;;;;13.90;7.22;;;;;;;17.64;44.08;94984.53;4143476;28;20399;-53
2022/05/01 08:44:05;;;;;;;8.40;5.25;;;;;;;17.74;43.32;94978.84;4142670;28;20552;-54
2022/05/01 08:46:19;;;;;;;9.40;5.05;;;;;;;17.43;41.82;94980.13;4126802;28;20120;-52
2022/05/01 08:48:51;;;;;;;6.00;3.97;;;;;;;17.61;43.50;94983.06;4126741;28;20156;-52
2022/05/01 08:50:54;;;;;;;6.55;3.85;;;;;;;17.71;42.15;94985.38;4127943;28;20558;-49
2022/05/01 08:52:58;;;;;;;5.80;3.70;;;;;;;17.91;41.88;94980.19;4140600;28;20197;-54
2022/05/01 08:55:00;;;;;;;5.95;4.22;;;;;;;18.10;40.80;94985.78;4143389;28;20279;-55
2022/05/01 08:57:02;;;;;;;4.97;3.85;;;;;;;18.03;40.40;94972.50;4142065;28;20058;-56
2022/05/01 08:59:05;;;;;;;4.07;3.67;;;;;;;18.19;40.55;94979.28;4141645;28;20054;-50
2022/05/01 09:01:11;;;;;;;6.00;3.70;;;;;;;18.28;41.25;94975.41;4135988;28;20046;-54
2022/05/01 09:03:13;;;;;;;4.25;3.83;;;;;;;18.48;40.24;94975.50;4126442;28;20055;-52
2022/05/01 09:05:16;;;;;;;5.90;3.55;;;;;;;18.67;39.90;94973.88;4127257;28;20874;-52
2022/05/01 09:07:18;;;;;;;4.97;3.58;;;;;;;18.62;38.84;94968.34;4127217;28;20128;-52
2022/05/01 09:09:21;;;;;;;4.65;3.20;;;;;;;18.67;38.82;94951.81;4125539;28;20050;-55
2022/05/01 09:13:44;;;;;;;9.68;3.40;;;;;;;18.77;38.84;94963.66;4126355;28;20050;-53
2022/05/01 09:15:46;;;;;;;3.47;3.17;;;;;;;18.90;38.84;94959.44;4125119;28;20081;-53
2022/05/01 09:18:05;;;;;;;6.88;3.30;;;;;;;18.76;38.42;94953.28;4126185;28;20138;-55
2022/05/01 09:20:08;;;;;;;5.20;3.20;;;;;;;18.77;38.22;94947.75;4126485;28;20128;-55
2022/05/01 09:22:11;;;;;;;4.40;3.13;;;;;;;18.82;37.63;94945.34;4139602;28;20352;-53
2022/05/01 09:24:13;;;;;;;8.82;3.60;;;;;;;18.84;37.58;94942.47;4141487;28;20049;-53
2022/05/01 09:26:16;;;;;;;4.88;3.15;;;;;;;18.82;38.32;94945.34;4143238;28;20479;-55
2022/05/01 09:28:22;;;;;;;5.63;2.80;;;;;;;18.83;38.17;94935.53;4142833;28;20050;-55
2022/05/01 09:30:31;;;;;;;4.72;2.75;;;;;;;18.93;37.53;94938.59;4142876;28;20049;-53
2022/05/01 09:32:37;;;;;;;4.25;2.78;;;;;;;18.95;37.11;94933.91;4142553;28;20050;-54
2022/05/01 09:34:43;;;;;;;3.15;2.50;;;;;;;18.90;36.39;94933.69;4141005;28;20505;-52
2022/05/01 09:36:44;;;;;;;4.45;2.55;;;;;;;18.70;36.68;94938.16;4143082;28;20050;-51
2022/05/01 09:39:02;;;;;;;4.65;2.45;;;;;;;18.70;36.45;94938.16;4141576;28;20734;-51
2022/05/01 09:41:13;;;;;;;6.78;2.85;;;;;;;18.68;36.94;94925.09;4143025;28;20058;-51
2022/05/01 09:43:43;;;;;;;3.78;2.60;;;;;;;18.86;35.79;94923.69;4142744;28;20054;-52
2022/05/01 09:45:45;;;;;;;5.20;2.38;;;;;;;19.19;36.35;94913.88;4142656;28;20116;-54
2022/05/01 09:47:47;;;;;;;4.05;2.42;;;;;;;19.51;35.48;94911.34;4140578;28;20053;-50
2022/05/01 09:49:50;;;;;;;4.13;2.30;;;;;;;19.55;34.23;94912.56;4126297;28;20125;-50
2022/05/01 09:51:56;;;;;;;3.50;2.10;;;;;;;19.33;32.98;94916.47;4135006;28;20046;-54
2022/05/01 09:54:00;;;;;;;2.80;1.90;;;;;;;19.48;33.06;94911.75;4141376;28;20053;-55
2022/05/01 09:56:02;;;;;;;10.50;2.00;;;;;;;19.66;32.50;94911.09;4142354;28;20053;-51
2022/05/01 09:58:14;;;;;;;5.25;2.20;;;;;;;19.60;31.67;94899.44;4142586;28;20053;-51
2022/05/01 10:00:37;;;;;;;2.30;1.88;;;;;;;19.53;32.59;94911.94;4142242;28;20064;-55